Pagrindinis puslapis
METAR-TAF:

METAR-TAF

Oro uostai :

Andavajlasas, Peru

platuma: 13-43S, ilguma: 073-21W, Aukštis: 3444 m

Dabartinis oras

Ataskaita buvo paskelbta 20 minutes, ne 16:00 UTC
Vėjas 6 kt iš Šiaurės/Šiaurės Rytų, svyruoja nuo Šiaurės/Šiaurės Vakarų ir Rytų/Šiaurės Rytų
Temperatūra 15°C
Drėgmė 44%
Slėgis 1037 hPa
Matomumas 10 km arba daugiau
Mažai debesys ne aukštis 1200 ft

METAR: SPHY 251600Z 02006KT 330V070 9999 FEW012 15/03 Q1037 RMK BIRD HAZARD RWY03/21 PP000

Laikas: 11:20 (16:20 UTC)

Prognozė

Ataskaita buvo paskelbta 5 valandos ir 20 minutes, ne 11:00 UTC
Prognozė galioja nuo 25 metu 12 UTC su 26 metu 12 UTC
Vėjas 5 kt iš Pietvakarių
Matomumas 10 km arba daugiau
nėra debesų žemiau 1500 m ir nėra kamuolinių lietaus debesų

TAF: SPHY 251100Z 2512/2612 23005KT CAVOK TX20/2519Z TNM01/2611Z

Orai ataskaitas ir orų prognozės (METAR, TAF).

turimą stotys yra geltonos ir raudonos taškus žemėlapyje.

Perkelti pele per norėdami pamatyti stoties vardą.

Tada spustelėkite, norėdami matyti oro stebėjimo ir prognozės.

Norėdami pakeisti žemėlapį: spustelėkite ant žalios mygtukų su juodo kryžiaus žemyn,; žalią mygtuką su brūkšneliu, jei norite nutolinti; arba žalių rodyklių gretimoms žemėlapius.


METAR-TAF: